createdAt,value
2024-05-09T00:00:41.246Z,1026.9
2024-05-09T00:01:40.068Z,1026.8
2024-05-09T00:02:40.049Z,1026.8
2024-05-09T00:03:40.140Z,1026.8
2024-05-09T00:04:40.103Z,1026.8
2024-05-09T00:05:40.155Z,1026.8
2024-05-09T00:06:40.127Z,1026.8
2024-05-09T00:07:40.021Z,1026.7
2024-05-09T00:08:40.072Z,1026.8
2024-05-09T00:09:40.036Z,1026.8
2024-05-09T00:10:41.059Z,1026.8
2024-05-09T00:11:40.144Z,1026.8
2024-05-09T00:12:40.161Z,1026.9
2024-05-09T00:13:40.040Z,1026.8
2024-05-09T00:14:40.139Z,1026.8
2024-05-09T00:15:40.040Z,1026.8
2024-05-09T00:16:40.028Z,1026.8
2024-05-09T00:17:41.275Z,1026.7
2024-05-09T00:18:40.022Z,1026.8
2024-05-09T00:19:40.043Z,1026.7
2024-05-09T00:20:41.308Z,1026.7
2024-05-09T00:21:40.038Z,1026.7
2024-05-09T00:22:40.030Z,1026.7
2024-05-09T00:23:40.151Z,1026.6
2024-05-09T00:24:40.172Z,1026.7
2024-05-09T00:25:40.040Z,1026.7
2024-05-09T00:26:39.993Z,1026.6
2024-05-09T00:27:39.975Z,1026.7
2024-05-09T00:28:39.965Z,1026.6
2024-05-09T00:29:40.110Z,1026.7
2024-05-09T00:30:39.983Z,1026.8
2024-05-09T00:31:39.964Z,1026.7
2024-05-09T00:32:40.246Z,1026.7
2024-05-09T00:33:40.198Z,1026.8
2024-05-09T00:34:40.006Z,1026.8
2024-05-09T00:35:40.172Z,1026.7
2024-05-09T00:36:39.996Z,1026.7
2024-05-09T00:37:39.953Z,1026.8
2024-05-09T00:38:42.163Z,1026.8
2024-05-09T00:39:40.007Z,1026.9
2024-05-09T00:40:42.419Z,1026.8
2024-05-09T00:41:40.071Z,1026.8
2024-05-09T00:42:39.992Z,1026.8
2024-05-09T00:43:39.967Z,1026.7
2024-05-09T00:44:40.012Z,1026.8
2024-05-09T00:45:40.504Z,1026.7
2024-05-09T00:46:40.455Z,1026.7
2024-05-09T00:47:40.085Z,1026.8
2024-05-09T00:48:40.219Z,1026.8
2024-05-09T00:49:40.086Z,1026.8
2024-05-09T00:50:40.455Z,1026.7
2024-05-09T00:51:40.023Z,1026.7
2024-05-09T00:52:39.983Z,1026.7
2024-05-09T00:53:40.050Z,1026.7
2024-05-09T00:54:39.974Z,1026.8
2024-05-09T00:55:40.177Z,1026.8
2024-05-09T00:56:39.966Z,1026.7
2024-05-09T00:57:39.945Z,1026.8
2024-05-09T00:58:39.948Z,1026.7
2024-05-09T00:59:41.158Z,1026.7
2024-05-09T01:00:41.326Z,1026.8
2024-05-09T01:01:40.007Z,1026.7
2024-05-09T01:02:40.206Z,1026.8
2024-05-09T01:03:40.121Z,1026.8
2024-05-09T01:04:40.056Z,1026.8
2024-05-09T01:05:40.447Z,1026.9
2024-05-09T01:06:40.034Z,1026.8
2024-05-09T01:07:39.942Z,1026.9
2024-05-09T01:08:39.993Z,1026.8
2024-05-09T01:09:39.944Z,1026.8
2024-05-09T01:10:42.643Z,1026.9
2024-05-09T01:11:40.065Z,1026.8
2024-05-09T01:12:40.046Z,1026.8
2024-05-09T01:13:39.926Z,1026.9
2024-05-09T01:14:39.925Z,1026.9
2024-05-09T01:15:39.909Z,1026.8
2024-05-09T01:16:39.903Z,1026.8
2024-05-09T01:17:40.248Z,1026.7
2024-05-09T01:18:40.039Z,1026.8
2024-05-09T01:19:40.006Z,1026.8
2024-05-09T01:20:44.146Z,1026.8
2024-05-09T01:21:39.936Z,1026.8
2024-05-09T01:22:39.945Z,1026.8
2024-05-09T01:23:40.045Z,1026.8
2024-05-09T01:24:39.886Z,1026.8
2024-05-09T01:25:40.032Z,1026.9
2024-05-09T01:26:39.931Z,1026.8
2024-05-09T01:27:39.950Z,1026.8
2024-05-09T01:28:40.069Z,1026.8
2024-05-09T01:29:39.874Z,1026.8
2024-05-09T01:30:39.953Z,1026.9
2024-05-09T01:31:39.998Z,1026.8
2024-05-09T01:32:40.283Z,1026.8
2024-05-09T01:33:40.120Z,1026.8
2024-05-09T01:34:39.879Z,1026.8
2024-05-09T01:35:39.974Z,1026.8
2024-05-09T01:36:39.932Z,1026.8
2024-05-09T01:37:39.958Z,1026.8
2024-05-09T01:38:39.971Z,1026.8
2024-05-09T01:39:40.077Z,1026.8
2024-05-09T01:40:40.522Z,1026.8
2024-05-09T01:41:41.747Z,1026.7
2024-05-09T01:42:39.908Z,1026.9
2024-05-09T01:43:39.847Z,1026.9
2024-05-09T01:44:39.826Z,1026.8
2024-05-09T01:45:40.220Z,1026.8
2024-05-09T01:46:39.880Z,1026.9
2024-05-09T01:47:40.035Z,1026.8
2024-05-09T01:48:39.884Z,1026.9
2024-05-09T01:49:39.959Z,1026.9
2024-05-09T01:50:42.390Z,1026.8
2024-05-09T01:51:39.873Z,1026.9
2024-05-09T01:52:39.892Z,1026.9
2024-05-09T01:53:39.930Z,1026.8
2024-05-09T01:54:39.849Z,1026.8
2024-05-09T01:55:39.892Z,1026.8
2024-05-09T01:56:39.882Z,1027.0
2024-05-09T01:57:39.870Z,1026.8
2024-05-09T01:58:39.864Z,1026.9
2024-05-09T01:59:39.960Z,1026.9
2024-05-09T02:00:42.577Z,1026.9
2024-05-09T02:01:55.989Z,1026.8
2024-05-09T02:02:42.055Z,1026.8
2024-05-09T02:03:40.011Z,1026.8
2024-05-09T02:04:39.961Z,1026.8
2024-05-09T02:05:40.088Z,1026.8
2024-05-09T02:06:39.851Z,1026.9
2024-05-09T02:07:39.845Z,1026.8
2024-05-09T02:08:39.999Z,1026.8
2024-05-09T02:09:39.809Z,1026.9
2024-05-09T02:10:39.834Z,1026.9
2024-05-09T02:11:40.031Z,1026.8
2024-05-09T02:12:39.857Z,1026.8
2024-05-09T02:13:39.854Z,1026.8
2024-05-09T02:14:44.098Z,1026.9
2024-05-09T02:15:39.844Z,1026.9
2024-05-09T02:16:39.839Z,1026.8
2024-05-09T02:17:40.093Z,1026.9
2024-05-09T02:18:39.946Z,1026.8
2024-05-09T02:19:39.835Z,1026.8
2024-05-09T02:20:39.962Z,1026.8
2024-05-09T02:21:39.846Z,1026.9
2024-05-09T02:22:39.901Z,1026.8
2024-05-09T02:23:42.334Z,1026.9
2024-05-09T02:24:39.828Z,1026.9
2024-05-09T02:25:39.833Z,1026.9
2024-05-09T02:26:39.880Z,1026.9
2024-05-09T02:27:39.836Z,1026.9
2024-05-09T02:28:39.804Z,1026.9
2024-05-09T02:29:39.885Z,1026.8
2024-05-09T02:30:41.811Z,1026.9
2024-05-09T02:31:39.795Z,1026.8
2024-05-09T02:32:39.892Z,1026.9
2024-05-09T02:33:39.997Z,1026.9
2024-05-09T02:34:40.022Z,1026.8
2024-05-09T02:35:39.910Z,1026.8
2024-05-09T02:36:39.767Z,1026.8
2024-05-09T02:37:39.791Z,1026.8
2024-05-09T02:38:39.836Z,1026.8
2024-05-09T02:39:39.889Z,1026.8
2024-05-09T02:40:40.574Z,1026.8
2024-05-09T02:41:39.868Z,1026.8
2024-05-09T02:42:39.756Z,1026.8
2024-05-09T02:43:39.843Z,1026.8
2024-05-09T02:44:42.812Z,1026.8
2024-05-09T02:45:40.513Z,1026.9
2024-05-09T02:46:39.780Z,1026.8
2024-05-09T02:47:39.967Z,1026.8
2024-05-09T02:48:39.894Z,1026.8
2024-05-09T02:49:39.913Z,1026.7
2024-05-09T02:50:40.371Z,1026.8
2024-05-09T02:51:39.763Z,1026.8
2024-05-09T02:52:39.822Z,1026.9
2024-05-09T02:53:39.906Z,1026.8
2024-05-09T02:54:39.768Z,1026.8
2024-05-09T02:55:39.839Z,1026.8
2024-05-09T02:56:39.924Z,1026.8
2024-05-09T02:57:39.752Z,1026.9
2024-05-09T02:58:39.779Z,1026.8
2024-05-09T02:59:39.728Z,1026.9
2024-05-09T03:00:42.041Z,1026.9
2024-05-09T03:01:39.849Z,1026.8
2024-05-09T03:02:39.863Z,1026.9
2024-05-09T03:03:40.015Z,1026.9
2024-05-09T03:04:40.056Z,1026.9
2024-05-09T03:05:43.365Z,1026.8
2024-05-09T03:06:39.872Z,1026.8
2024-05-09T03:07:39.807Z,1026.9
2024-05-09T03:08:39.866Z,1026.8
2024-05-09T03:09:39.731Z,1026.8
2024-05-09T03:10:40.063Z,1026.8
2024-05-09T03:11:39.984Z,1026.8
2024-05-09T03:12:39.921Z,1026.9
2024-05-09T03:13:39.811Z,1026.9
2024-05-09T03:14:39.769Z,1026.8
2024-05-09T03:15:39.735Z,1026.8
2024-05-09T03:16:39.742Z,1026.9
2024-05-09T03:17:39.882Z,1026.8
2024-05-09T03:18:39.952Z,1026.9
2024-05-09T03:19:39.723Z,1026.8
2024-05-09T03:20:40.181Z,1026.8
2024-05-09T03:21:39.724Z,1026.8
2024-05-09T03:22:39.759Z,1026.8
2024-05-09T03:23:39.902Z,1026.8
2024-05-09T03:24:39.706Z,1026.9
2024-05-09T03:25:40.362Z,1026.9
2024-05-09T03:26:39.775Z,1026.9
2024-05-09T03:27:39.734Z,1026.8
2024-05-09T03:28:39.725Z,1026.8
2024-05-09T03:29:39.915Z,1026.8
2024-05-09T03:30:42.559Z,1026.8
2024-05-09T03:31:39.759Z,1026.7
2024-05-09T03:32:39.804Z,1026.9
2024-05-09T03:33:39.982Z,1026.8
2024-05-09T03:34:39.733Z,1027.0
2024-05-09T03:35:39.777Z,1026.9
2024-05-09T03:36:39.715Z,1027.0
2024-05-09T03:37:39.755Z,1026.9
2024-05-09T03:38:39.811Z,1026.9
2024-05-09T03:39:39.737Z,1027.0
2024-05-09T03:40:39.950Z,1026.9
2024-05-09T03:41:39.746Z,1026.9
2024-05-09T03:42:39.797Z,1026.9
2024-05-09T03:43:39.743Z,1026.9
2024-05-09T03:44:39.863Z,1026.9
2024-05-09T03:45:39.726Z,1026.9
2024-05-09T03:46:40.727Z,1026.9
2024-05-09T03:47:39.928Z,1027.0
2024-05-09T03:48:39.744Z,1026.9
2024-05-09T03:49:39.702Z,1026.9
2024-05-09T03:50:39.836Z,1026.9
2024-05-09T03:51:40.623Z,1027.0
2024-05-09T03:52:39.730Z,1026.9
2024-05-09T03:53:39.837Z,1026.8
2024-05-09T03:54:39.688Z,1026.9
2024-05-09T03:55:39.759Z,1026.9
2024-05-09T03:56:39.763Z,1026.9
2024-05-09T03:57:39.696Z,1026.9
2024-05-09T03:58:39.719Z,1026.9
2024-05-09T03:59:39.682Z,1026.9
2024-05-09T04:00:40.397Z,1026.9
2024-05-09T04:01:39.729Z,1026.9
2024-05-09T04:02:41.256Z,1027.0
2024-05-09T04:03:39.791Z,1026.9
2024-05-09T04:04:39.733Z,1026.9
2024-05-09T04:05:40.416Z,1027.0
2024-05-09T04:06:39.662Z,1026.9
2024-05-09T04:07:40.910Z,1027.0
2024-05-09T04:08:39.811Z,1027.0
2024-05-09T04:09:39.696Z,1027.0
2024-05-09T04:10:39.684Z,1026.9
2024-05-09T04:11:39.695Z,1026.9
2024-05-09T04:12:39.636Z,1027.1
2024-05-09T04:13:42.191Z,1027.0
2024-05-09T04:14:39.753Z,1027.1
2024-05-09T04:15:39.669Z,1027.0
2024-05-09T04:16:39.656Z,1027.0
2024-05-09T04:17:39.870Z,1027.0
2024-05-09T04:18:39.806Z,1027.0
2024-05-09T04:19:39.831Z,1027.0
2024-05-09T04:20:41.404Z,1027.0
2024-05-09T04:21:39.635Z,1027.0
2024-05-09T04:22:39.698Z,1027.0
2024-05-09T04:23:39.779Z,1027.0
2024-05-09T04:24:42.687Z,1027.0
2024-05-09T04:25:39.690Z,1027.0
2024-05-09T04:26:39.718Z,1027.1
2024-05-09T04:27:39.623Z,1027.0
2024-05-09T04:28:40.895Z,1027.1
2024-05-09T04:29:39.700Z,1027.1
2024-05-09T04:30:41.445Z,1027.2
2024-05-09T04:31:39.662Z,1027.2
2024-05-09T04:32:39.731Z,1027.1
2024-05-09T04:33:39.747Z,1027.1
2024-05-09T04:34:39.734Z,1027.1
2024-05-09T04:35:39.955Z,1027.2
2024-05-09T04:36:41.592Z,1027.2
2024-05-09T04:37:39.605Z,1027.1
2024-05-09T04:38:39.724Z,1027.2
2024-05-09T04:39:39.627Z,1027.2
2024-05-09T04:40:39.624Z,1027.2
2024-05-09T04:41:39.674Z,1027.2
2024-05-09T04:42:39.651Z,1027.2
2024-05-09T04:43:39.622Z,1027.2
2024-05-09T04:44:39.649Z,1027.2
2024-05-09T04:45:39.619Z,1027.2
2024-05-09T04:46:39.726Z,1027.3
2024-05-09T04:47:39.713Z,1027.3
2024-05-09T04:48:39.719Z,1027.2
2024-05-09T04:49:41.543Z,1027.2
2024-05-09T04:50:40.080Z,1027.2
2024-05-09T04:51:39.655Z,1027.3
2024-05-09T04:52:39.605Z,1027.3
2024-05-09T04:53:39.830Z,1027.3
2024-05-09T04:54:39.580Z,1027.3
2024-05-09T04:55:40.226Z,1027.1
2024-05-09T04:56:39.677Z,1027.2
2024-05-09T04:57:39.726Z,1027.2
2024-05-09T04:58:39.637Z,1027.3
2024-05-09T04:59:39.617Z,1027.2
2024-05-09T05:00:40.672Z,1027.3
2024-05-09T05:01:39.643Z,1027.3
2024-05-09T05:02:39.706Z,1027.3
2024-05-09T05:03:39.711Z,1027.3
2024-05-09T05:04:39.636Z,1027.3
2024-05-09T05:05:39.758Z,1027.3
2024-05-09T05:06:39.610Z,1027.2
2024-05-09T05:07:39.592Z,1027.2
2024-05-09T05:08:39.736Z,1027.3
2024-05-09T05:09:39.790Z,1027.3
2024-05-09T05:10:41.735Z,1027.3
2024-05-09T05:11:39.877Z,1027.3
2024-05-09T05:12:40.050Z,1027.3
2024-05-09T05:13:41.510Z,1027.3
2024-05-09T05:14:39.713Z,1027.3
2024-05-09T05:15:39.636Z,1027.4
2024-05-09T05:16:39.653Z,1027.3
2024-05-09T05:17:39.845Z,1027.4
2024-05-09T05:18:39.703Z,1027.4
2024-05-09T05:19:39.822Z,1027.3
2024-05-09T05:20:39.658Z,1027.4
2024-05-09T05:21:39.606Z,1027.4
2024-05-09T05:22:39.572Z,1027.3
2024-05-09T05:23:39.750Z,1027.4
2024-05-09T05:24:39.560Z,1027.4
2024-05-09T05:25:40.201Z,1027.4
2024-05-09T05:26:39.653Z,1027.3
2024-05-09T05:27:39.613Z,1027.4
2024-05-09T05:28:39.954Z,1027.4
2024-05-09T05:29:39.645Z,1027.4
2024-05-09T05:30:41.208Z,1027.5
2024-05-09T05:31:39.680Z,1027.5
2024-05-09T05:32:39.923Z,1027.4
2024-05-09T05:33:39.641Z,1027.4
2024-05-09T05:34:39.514Z,1027.5
2024-05-09T05:35:39.562Z,1027.4
2024-05-09T05:36:39.746Z,1027.5
2024-05-09T05:37:39.519Z,1027.4
2024-05-09T05:38:39.625Z,1027.5
2024-05-09T05:39:39.545Z,1027.4
2024-05-09T05:40:40.723Z,1027.5
2024-05-09T05:41:39.882Z,1027.5
2024-05-09T05:42:39.532Z,1027.5
2024-05-09T05:43:39.530Z,1027.5
2024-05-09T05:44:39.569Z,1027.6
2024-05-09T05:45:39.593Z,1027.5
2024-05-09T05:46:42.300Z,1027.5
2024-05-09T05:47:39.719Z,1027.6
2024-05-09T05:48:39.791Z,1027.6
2024-05-09T05:49:39.597Z,1027.5
2024-05-09T05:50:39.631Z,1027.5
2024-05-09T05:51:40.946Z,1027.6
2024-05-09T05:52:39.665Z,1027.5
2024-05-09T05:53:39.802Z,1027.5
2024-05-09T05:54:39.556Z,1027.5
2024-05-09T05:55:39.875Z,1027.5
2024-05-09T05:56:39.761Z,1027.5
2024-05-09T05:57:39.536Z,1027.6
2024-05-09T05:58:39.578Z,1027.5
2024-05-09T05:59:39.579Z,1027.6
2024-05-09T06:00:40.820Z,1027.5
2024-05-09T06:01:39.482Z,1027.6
2024-05-09T06:02:39.600Z,1027.5
2024-05-09T06:03:39.776Z,1027.6
2024-05-09T06:04:39.570Z,1027.6
2024-05-09T06:05:40.470Z,1027.6
2024-05-09T06:06:39.954Z,1027.6
2024-05-09T06:07:39.541Z,1027.4
2024-05-09T06:08:39.640Z,1027.6
2024-05-09T06:09:39.539Z,1027.5
2024-05-09T06:10:41.092Z,1027.5
2024-05-09T06:11:39.609Z,1027.6
2024-05-09T06:12:41.215Z,1027.6
2024-05-09T06:13:39.523Z,1027.6
2024-05-09T06:14:39.576Z,1027.4
2024-05-09T06:15:39.623Z,1027.6
2024-05-09T06:16:39.647Z,1027.5
2024-05-09T06:17:39.878Z,1027.5
2024-05-09T06:18:39.935Z,1027.5
2024-05-09T06:19:39.620Z,1027.5
2024-05-09T06:20:40.241Z,1027.5
2024-05-09T06:21:39.781Z,1027.4
2024-05-09T06:22:39.449Z,1027.4
2024-05-09T06:23:39.525Z,1027.4
2024-05-09T06:24:39.484Z,1027.5
2024-05-09T06:25:39.554Z,1027.4
2024-05-09T06:26:39.503Z,1027.5
2024-05-09T06:27:39.453Z,1027.5
2024-05-09T06:28:39.530Z,1027.5
2024-05-09T06:29:39.664Z,1027.4
2024-05-09T06:30:41.726Z,1027.4
2024-05-09T06:31:39.485Z,1027.4
2024-05-09T06:32:39.556Z,1027.4
2024-05-09T06:33:42.075Z,1027.4
2024-05-09T06:34:39.558Z,1027.5
2024-05-09T06:35:39.824Z,1027.4
2024-05-09T06:36:39.595Z,1027.4
2024-05-09T06:37:39.605Z,1027.3
2024-05-09T06:38:39.658Z,1027.4
2024-05-09T06:39:39.535Z,1027.3
2024-05-09T06:40:41.113Z,1027.4
2024-05-09T06:41:39.532Z,1027.4
2024-05-09T06:42:39.416Z,1027.4
2024-05-09T06:43:39.455Z,1027.4
2024-05-09T06:44:39.487Z,1027.4
2024-05-09T06:45:39.671Z,1027.4
2024-05-09T06:46:39.556Z,1027.4
2024-05-09T06:47:39.647Z,1027.3
2024-05-09T06:48:40.033Z,1027.4
2024-05-09T06:49:39.533Z,1027.3
2024-05-09T06:50:40.214Z,1027.3
2024-05-09T06:51:39.484Z,1027.2
2024-05-09T06:52:39.486Z,1027.3
2024-05-09T06:53:39.602Z,1027.4
2024-05-09T06:54:41.682Z,1027.4
2024-05-09T06:55:39.473Z,1027.3
2024-05-09T06:56:39.445Z,1027.4
2024-05-09T06:57:42.483Z,1027.3
2024-05-09T06:58:39.421Z,1027.3
2024-05-09T06:59:39.581Z,1027.3
2024-05-09T07:00:41.395Z,1027.3
2024-05-09T07:01:39.598Z,1027.4
2024-05-09T07:02:39.969Z,1027.3
2024-05-09T07:03:39.536Z,1027.3
2024-05-09T07:04:39.527Z,1027.3
2024-05-09T07:05:39.688Z,1027.4
2024-05-09T07:06:39.443Z,1027.4
2024-05-09T07:07:39.746Z,1027.3
2024-05-09T07:08:39.598Z,1027.3
2024-05-09T07:09:39.428Z,1027.3
2024-05-09T07:10:39.652Z,1027.3
2024-05-09T07:11:39.626Z,1027.3
2024-05-09T07:12:39.439Z,1027.3
2024-05-09T07:13:39.690Z,1027.3
2024-05-09T07:14:45.238Z,1027.3
2024-05-09T07:15:42.188Z,1027.3
2024-05-09T07:16:39.659Z,1027.2
2024-05-09T07:17:39.614Z,1027.3
2024-05-09T07:18:40.049Z,1027.3
2024-05-09T07:19:39.546Z,1027.3
2024-05-09T07:20:39.487Z,1027.3
2024-05-09T07:21:39.596Z,1027.3
2024-05-09T07:22:39.426Z,1027.3
2024-05-09T07:23:39.503Z,1027.3
2024-05-09T07:24:39.609Z,1027.3
2024-05-09T07:25:39.520Z,1027.3
2024-05-09T07:26:39.648Z,1027.3
2024-05-09T07:27:39.386Z,1027.3
2024-05-09T07:28:39.378Z,1027.3
2024-05-09T07:29:39.638Z,1027.3
2024-05-09T07:30:39.499Z,1027.4
2024-05-09T07:31:39.462Z,1027.3
2024-05-09T07:32:39.708Z,1027.3
2024-05-09T07:33:39.527Z,1027.3
2024-05-09T07:34:39.443Z,1027.3
2024-05-09T07:35:39.634Z,1027.4
2024-05-09T07:36:41.993Z,1027.4
2024-05-09T07:37:39.428Z,1027.4
2024-05-09T07:38:39.470Z,1027.3
2024-05-09T07:39:39.472Z,1027.4
2024-05-09T07:40:39.418Z,1027.3
2024-05-09T07:41:39.461Z,1027.3
2024-05-09T07:42:39.395Z,1027.3
2024-05-09T07:43:39.790Z,1027.3
2024-05-09T07:44:39.645Z,1027.3
2024-05-09T07:45:48.944Z,1027.2
2024-05-09T07:47:47.633Z,1027.3
2024-05-09T07:48:58.146Z,1027.3
2024-05-09T07:53:14.346Z,1027.3
2024-05-09T07:53:44.435Z,1027.2
2024-05-09T07:54:39.519Z,1027.3
2024-05-09T07:55:39.595Z,1027.3
2024-05-09T07:56:39.812Z,1027.2
2024-05-09T07:57:42.743Z,1027.2
2024-05-09T07:58:39.463Z,1027.3
2024-05-09T07:59:39.396Z,1027.2
2024-05-09T08:00:39.456Z,1027.2
2024-05-09T08:01:39.522Z,1027.2
2024-05-09T08:02:39.372Z,1027.1
2024-05-09T08:03:39.618Z,1027.2
2024-05-09T08:04:39.535Z,1027.3
2024-05-09T08:05:39.525Z,1027.2
2024-05-09T08:06:39.394Z,1027.2
2024-05-09T08:07:39.387Z,1027.2
2024-05-09T08:08:39.561Z,1027.2
2024-05-09T08:09:39.423Z,1027.2
2024-05-09T08:10:39.406Z,1027.3
2024-05-09T08:11:39.401Z,1027.2
2024-05-09T08:12:39.380Z,1027.2
2024-05-09T08:13:39.369Z,1027.1
2024-05-09T08:14:39.398Z,1027.1
2024-05-09T08:15:39.432Z,1027.1
2024-05-09T08:16:39.556Z,1027.1
2024-05-09T08:17:39.937Z,1027.2
2024-05-09T08:18:39.634Z,1027.1
2024-05-09T08:19:39.381Z,1027.2
2024-05-09T08:20:39.399Z,1027.2
2024-05-09T08:21:39.345Z,1027.2
2024-05-09T08:22:39.329Z,1027.2
2024-05-09T08:23:39.371Z,1027.2
2024-05-09T08:24:39.420Z,1027.2
2024-05-09T08:25:39.320Z,1027.1
2024-05-09T08:26:39.372Z,1027.1
2024-05-09T08:27:39.421Z,1027.2
2024-05-09T08:28:39.347Z,1027.2
2024-05-09T08:29:39.397Z,1027.2
2024-05-09T08:30:39.451Z,1027.2
2024-05-09T08:31:39.422Z,1027.2
2024-05-09T08:32:39.373Z,1027.2
2024-05-09T08:33:39.490Z,1027.3
2024-05-09T08:34:39.333Z,1027.3
2024-05-09T08:35:39.344Z,1027.2
2024-05-09T08:36:39.379Z,1027.2
2024-05-09T08:37:40.682Z,1027.1
2024-05-09T08:38:40.127Z,1027.1
2024-05-09T08:39:39.346Z,1027.2
2024-05-09T08:40:39.422Z,1027.1
2024-05-09T08:41:39.314Z,1027.1
2024-05-09T08:42:39.379Z,1027.2
2024-05-09T08:43:41.559Z,1027.2
2024-05-09T08:44:39.378Z,1027.2
2024-05-09T08:45:39.340Z,1027.1
2024-05-09T08:46:39.302Z,1027.1
2024-05-09T08:47:39.449Z,1027.2
2024-05-09T08:48:39.418Z,1027.3
2024-05-09T08:49:41.417Z,1027.3
2024-05-09T08:50:40.256Z,1027.2
2024-05-09T08:51:39.390Z,1027.2
2024-05-09T08:52:39.348Z,1027.2
2024-05-09T08:53:39.313Z,1027.2
2024-05-09T08:54:39.322Z,1027.3
2024-05-09T08:55:42.119Z,1027.3
2024-05-09T08:56:39.291Z,1027.3
2024-05-09T08:57:39.403Z,1027.3
2024-05-09T08:58:39.338Z,1027.3
2024-05-09T08:59:40.075Z,1027.2
2024-05-09T09:00:39.547Z,1027.3
2024-05-09T09:01:40.916Z,1027.2
2024-05-09T09:02:39.571Z,1027.2
2024-05-09T09:03:39.842Z,1027.2
2024-05-09T09:04:39.528Z,1027.3
2024-05-09T09:05:39.933Z,1027.2
2024-05-09T09:06:39.411Z,1027.2
2024-05-09T09:07:39.328Z,1027.2
2024-05-09T09:08:39.298Z,1027.2
2024-05-09T09:09:39.283Z,1027.2
2024-05-09T09:10:39.477Z,1027.2
2024-05-09T09:11:39.597Z,1027.2
2024-05-09T09:12:39.400Z,1027.2
2024-05-09T09:13:39.323Z,1027.1
2024-05-09T09:14:39.362Z,1027.1
2024-05-09T09:15:39.388Z,1027.2
2024-05-09T09:16:39.288Z,1027.3
2024-05-09T09:17:39.340Z,1027.2
2024-05-09T09:18:39.702Z,1027.2
2024-05-09T09:19:39.408Z,1027.2
2024-05-09T09:20:40.309Z,1027.2
2024-05-09T09:21:39.362Z,1027.2
2024-05-09T09:22:40.253Z,1027.2
2024-05-09T09:23:39.296Z,1027.2
2024-05-09T09:24:39.368Z,1027.3
2024-05-09T09:25:39.255Z,1027.3
2024-05-09T09:26:39.296Z,1027.3
2024-05-09T09:27:39.347Z,1027.3
2024-05-09T09:28:39.307Z,1027.2
2024-05-09T09:29:39.264Z,1027.3
2024-05-09T09:30:39.518Z,1027.2
2024-05-09T09:31:39.335Z,1027.2
2024-05-09T09:32:39.519Z,1027.1
2024-05-09T09:33:39.579Z,1027.2
2024-05-09T09:34:39.299Z,1027.1
2024-05-09T09:35:39.475Z,1027.1
2024-05-09T09:36:39.343Z,1027.1
2024-05-09T09:37:39.287Z,1027.1
2024-05-09T09:38:39.287Z,1027.1
2024-05-09T09:39:39.284Z,1027.1
2024-05-09T09:40:44.518Z,1027.0
2024-05-09T09:41:40.467Z,1027.1
2024-05-09T09:42:39.305Z,1027.1
2024-05-09T09:43:39.269Z,1027.1
2024-05-09T09:44:42.140Z,1027.1
2024-05-09T09:45:39.338Z,1027.0
2024-05-09T09:46:39.323Z,1027.0
2024-05-09T09:47:39.408Z,1027.1
2024-05-09T09:48:39.517Z,1027.1
2024-05-09T09:49:39.274Z,1027.1
2024-05-09T09:50:39.244Z,1027.0
2024-05-09T09:51:39.287Z,1027.1
2024-05-09T09:52:39.286Z,1027.1
2024-05-09T09:53:39.275Z,1027.1
2024-05-09T09:54:39.271Z,1027.1
2024-05-09T09:55:39.387Z,1027.1
2024-05-09T09:56:39.255Z,1027.0
2024-05-09T09:57:39.275Z,1027.1
2024-05-09T09:58:39.272Z,1027.1
2024-05-09T09:59:39.244Z,1027.1
2024-05-09T10:00:39.496Z,1027.1
2024-05-09T10:01:39.536Z,1027.1
2024-05-09T10:02:40.749Z,1027.1
2024-05-09T10:03:39.579Z,1027.1
2024-05-09T10:04:39.568Z,1027.1
2024-05-09T10:05:42.033Z,1027.0
2024-05-09T10:06:39.753Z,1026.9
2024-05-09T10:07:39.367Z,1026.9
2024-05-09T10:08:39.491Z,1027.0
2024-05-09T10:09:39.493Z,1027.0
2024-05-09T10:10:39.634Z,1027.0
2024-05-09T10:11:42.036Z,1026.9
2024-05-09T10:12:39.299Z,1026.9
2024-05-09T10:13:39.210Z,1027.0
2024-05-09T10:14:39.257Z,1026.9
2024-05-09T10:15:39.266Z,1027.0
2024-05-09T10:16:39.214Z,1027.0
2024-05-09T10:17:39.300Z,1026.9
2024-05-09T10:18:39.468Z,1027.0
2024-05-09T10:19:39.263Z,1027.0
2024-05-09T10:20:39.238Z,1027.0
2024-05-09T10:21:39.301Z,1027.0
2024-05-09T10:22:39.237Z,1026.9
2024-05-09T10:23:40.882Z,1026.9
2024-05-09T10:24:39.329Z,1026.9
2024-05-09T10:25:39.198Z,1026.9
2024-05-09T10:26:39.287Z,1027.0
2024-05-09T10:27:39.274Z,1026.9
2024-05-09T10:28:39.342Z,1026.9
2024-05-09T10:29:39.205Z,1026.9
2024-05-09T10:30:39.907Z,1026.9
2024-05-09T10:31:39.459Z,1026.9
2024-05-09T10:32:39.349Z,1026.9
2024-05-09T10:33:39.501Z,1026.9
2024-05-09T10:34:39.251Z,1026.9
2024-05-09T10:35:39.303Z,1026.9
2024-05-09T10:36:39.227Z,1026.9
2024-05-09T10:37:39.258Z,1026.9
2024-05-09T10:38:39.168Z,1026.8
2024-05-09T10:39:42.262Z,1026.9
2024-05-09T10:40:39.268Z,1026.9
2024-05-09T10:41:39.337Z,1027.0
2024-05-09T10:42:39.306Z,1026.9
2024-05-09T10:43:39.205Z,1026.9
2024-05-09T10:44:41.115Z,1026.9
2024-05-09T10:45:39.262Z,1026.9
2024-05-09T10:46:39.266Z,1026.9
2024-05-09T10:47:39.251Z,1026.8
2024-05-09T10:48:39.424Z,1026.9
2024-05-09T10:49:39.244Z,1026.8
2024-05-09T10:50:39.363Z,1026.8
2024-05-09T10:51:39.394Z,1026.8
2024-05-09T10:52:39.183Z,1026.8
2024-05-09T10:53:39.229Z,1026.9
2024-05-09T10:54:39.295Z,1026.8
2024-05-09T10:55:39.234Z,1026.8
2024-05-09T10:56:39.198Z,1026.9
2024-05-09T10:57:39.268Z,1026.8
2024-05-09T10:58:39.215Z,1026.7
2024-05-09T10:59:39.205Z,1026.7
2024-05-09T11:00:39.250Z,1026.7
2024-05-09T11:01:39.203Z,1026.7
2024-05-09T11:02:39.339Z,1026.7
2024-05-09T11:03:39.757Z,1026.6
2024-05-09T11:04:39.338Z,1026.6
2024-05-09T11:05:41.540Z,1026.7
2024-05-09T11:06:39.278Z,1026.6
2024-05-09T11:07:39.184Z,1026.6
2024-05-09T11:08:39.259Z,1026.6
2024-05-09T11:09:39.359Z,1026.6
2024-05-09T11:10:39.259Z,1026.6
2024-05-09T11:11:39.227Z,1026.6
2024-05-09T11:12:39.435Z,1026.6
2024-05-09T11:13:39.228Z,1026.6
2024-05-09T11:14:39.174Z,1026.6
2024-05-09T11:15:39.170Z,1026.6
2024-05-09T11:16:39.138Z,1026.6
2024-05-09T11:17:39.347Z,1026.6
2024-05-09T11:18:39.597Z,1026.6
2024-05-09T11:19:39.279Z,1026.6
2024-05-09T11:20:39.201Z,1026.5
2024-05-09T11:21:39.209Z,1026.6
2024-05-09T11:22:39.139Z,1026.6
2024-05-09T11:23:39.419Z,1026.6
2024-05-09T11:24:39.243Z,1026.6
2024-05-09T11:25:39.648Z,1026.6
2024-05-09T11:26:41.677Z,1026.6
2024-05-09T11:27:39.155Z,1026.6
2024-05-09T11:28:39.239Z,1026.6
2024-05-09T11:29:39.293Z,1026.7
2024-05-09T11:30:39.214Z,1026.7
2024-05-09T11:31:39.251Z,1026.7
2024-05-09T11:32:39.270Z,1026.6
2024-05-09T11:33:39.562Z,1026.6
2024-05-09T11:34:39.468Z,1026.7
2024-05-09T11:35:39.155Z,1026.6
2024-05-09T11:36:39.276Z,1026.6
2024-05-09T11:37:39.165Z,1026.6
2024-05-09T11:38:39.159Z,1026.6
2024-05-09T11:39:39.123Z,1026.6
2024-05-09T11:40:39.235Z,1026.5
2024-05-09T11:41:39.158Z,1026.6
2024-05-09T11:42:39.218Z,1026.5
2024-05-09T11:43:39.126Z,1026.5
2024-05-09T11:44:39.139Z,1026.5
2024-05-09T11:45:39.545Z,1026.5
2024-05-09T11:46:39.796Z,1026.6
2024-05-09T11:47:42.663Z,1026.5
2024-05-09T11:48:39.388Z,1026.6
2024-05-09T11:49:39.277Z,1026.6
2024-05-09T11:50:39.178Z,1026.5
2024-05-09T11:51:39.268Z,1026.5
2024-05-09T11:52:39.149Z,1026.5
2024-05-09T11:53:39.419Z,1026.5
2024-05-09T11:54:39.181Z,1026.5
2024-05-09T11:55:39.187Z,1026.5
2024-05-09T11:56:39.157Z,1026.5
2024-05-09T11:57:39.303Z,1026.5
2024-05-09T11:58:39.143Z,1026.4
2024-05-09T11:59:39.175Z,1026.4
2024-05-09T12:00:39.298Z,1026.5
2024-05-09T12:01:39.250Z,1026.4
2024-05-09T12:02:39.127Z,1026.4
2024-05-09T12:03:39.410Z,1026.4
2024-05-09T12:04:39.589Z,1026.4
2024-05-09T12:05:39.548Z,1026.4
2024-05-09T12:06:39.249Z,1026.4
2024-05-09T12:07:39.682Z,1026.5
2024-05-09T12:08:39.148Z,1026.5
2024-05-09T12:09:39.251Z,1026.5
2024-05-09T12:10:39.449Z,1026.4
2024-05-09T12:11:39.554Z,1026.3
2024-05-09T12:12:39.469Z,1026.3
2024-05-09T12:13:39.274Z,1026.3
2024-05-09T12:14:39.194Z,1026.3
2024-05-09T12:15:39.424Z,1026.4
2024-05-09T12:16:39.542Z,1026.4
2024-05-09T12:17:39.399Z,1026.4
2024-05-09T12:18:39.605Z,1026.3
2024-05-09T12:19:39.529Z,1026.3
2024-05-09T12:20:40.255Z,1026.3
2024-05-09T12:21:39.295Z,1026.4
2024-05-09T12:22:39.441Z,1026.3
2024-05-09T12:23:39.312Z,1026.3
2024-05-09T12:24:39.291Z,1026.2
2024-05-09T12:25:39.920Z,1026.2
2024-05-09T12:26:39.155Z,1026.2
2024-05-09T12:27:39.446Z,1026.2
2024-05-09T12:28:39.819Z,1026.3
2024-05-09T12:29:42.339Z,1026.3
2024-05-09T12:30:40.903Z,1026.3
2024-05-09T12:31:39.147Z,1026.3
2024-05-09T12:32:39.367Z,1026.2